Time;durP1;ratioP1;P1;durP2;ratioP2;P2;SDS_P1;SDS_P2;PMS_P1;PMS_P2;Temp;Humidity;BMP_temperature;BMP_pressure;BME280_temperature;BME280_humidity;BME280_pressure;Samples;Min_cycle;Max_cycle;Signal;HPM_P1;HPM_P2
2022/05/15 00:01:04;;;;;;;;;;;24.50;89.80;;;;;;5045841;28;20727;-61
2022/05/15 00:03:38;;;;;;;;;;;24.50;89.80;;;;;;5049191;28;19940;-61
2022/05/15 00:06:06;;;;;;;;;;;24.50;89.50;;;;;;5040634;28;19935;-60
2022/05/15 00:08:35;;;;;;;;;;;24.50;89.50;;;;;;5019666;28;20296;-61
2022/05/15 00:11:03;;;;;;;;;;;24.50;89.50;;;;;;5067287;28;19935;-60
2022/05/15 00:13:30;;;;;;;;;;;24.50;89.50;;;;;;5038076;28;19929;-61
2022/05/15 00:15:57;;;;;;;;;;;24.50;89.80;;;;;;5053174;28;20460;-58
2022/05/15 00:18:25;;;;;;;;;;;24.50;89.60;;;;;;5043385;28;19944;-61
2022/05/15 00:20:52;;;;;;;;;;;24.50;89.70;;;;;;5050176;28;19936;-61
2022/05/15 00:23:20;;;;;;;;;;;24.50;89.60;;;;;;5068891;28;19954;-61
2022/05/15 00:25:47;;;;;;;;;;;24.50;89.80;;;;;;5067761;28;19924;-60
2022/05/15 00:28:15;;;;;;;;;;;24.50;89.90;;;;;;5059122;28;20394;-60
2022/05/15 00:30:42;;;;;;;;;;;24.40;89.80;;;;;;5038594;28;19929;-59
2022/05/15 00:33:09;;;;;;;;;;;24.40;89.90;;;;;;5033974;28;19979;-60
2022/05/15 00:35:37;;;;;;;;;;;24.40;90.00;;;;;;5044308;28;20325;-59
2022/05/15 00:38:05;;;;;;;;;;;24.40;90.00;;;;;;5034403;28;19929;-59
2022/05/15 00:40:34;;;;;;;;;;;24.40;90.00;;;;;;5034124;28;19929;-59
2022/05/15 00:43:01;;;;;;;;;;;24.40;90.00;;;;;;5030172;28;19948;-58
2022/05/15 00:45:29;;;;;;;;;;;24.40;90.10;;;;;;5054272;28;19924;-55
2022/05/15 00:47:56;;;;;;;;;;;24.40;90.40;;;;;;5047012;28;20356;-59
2022/05/15 00:50:28;;;;;;;;;;;24.40;90.40;;;;;;5042640;28;19929;-58
2022/05/15 00:52:58;;;;;;;;;;;24.40;90.40;;;;;;5033833;28;19940;-58
2022/05/15 00:55:31;;;;;;;;;;;24.40;90.20;;;;;;5047487;28;19955;-59
2022/05/15 00:58:00;;;;;;;;;;;24.40;90.10;;;;;;5043866;28;19929;-57
2022/05/15 01:00:28;;;;;;;;;;;24.40;90.10;;;;;;5045546;28;19929;-59
2022/05/15 01:03:00;;;;;;;;;;;24.40;90.00;;;;;;5027069;28;20308;-60
2022/05/15 01:05:27;;;;;;;;;;;24.40;90.00;;;;;;5032404;28;19929;-59
2022/05/15 01:07:55;;;;;;;;;;;24.40;90.00;;;;;;5028837;28;19929;-61
2022/05/15 01:10:24;;;;;;;;;;;24.30;90.00;;;;;;5046475;28;19928;-60
2022/05/15 01:12:52;;;;;;;;;;;24.30;89.80;;;;;;5040742;28;19929;-59
2022/05/15 01:15:24;;;;;;;;;;;24.30;90.10;;;;;;5031021;28;19925;-59
2022/05/15 01:17:53;;;;;;;;;;;24.30;90.20;;;;;;5016962;28;19943;-60
2022/05/15 01:20:23;;;;;;;;;;;24.30;90.10;;;;;;5047130;28;19980;-59
2022/05/15 01:22:50;;;;;;;;;;;24.30;90.10;;;;;;5011621;28;19929;-60
2022/05/15 01:25:19;;;;;;;;;;;24.30;90.10;;;;;;5034918;28;19925;-59
2022/05/15 01:27:54;;;;;;;;;;;24.30;90.10;;;;;;5034326;28;19929;-59
2022/05/15 01:30:22;;;;;;;;;;;24.30;90.10;;;;;;5043302;28;19929;-60
2022/05/15 01:32:50;;;;;;;;;;;24.30;90.10;;;;;;5028787;28;19928;-60
2022/05/15 01:35:18;;;;;;;;;;;24.30;90.20;;;;;;5030966;28;19929;-59
2022/05/15 01:37:45;;;;;;;;;;;24.30;90.20;;;;;;5028855;28;19929;-58
2022/05/15 01:40:13;;;;;;;;;;;24.30;90.40;;;;;;5058094;28;20319;-59
2022/05/15 01:42:41;;;;;;;;;;;24.30;90.40;;;;;;5032085;28;19925;-57
2022/05/15 01:45:10;;;;;;;;;;;24.30;90.50;;;;;;5032491;28;19933;-60
2022/05/15 01:47:37;;;;;;;;;;;24.30;90.60;;;;;;5033500;28;19952;-59
2022/05/15 01:50:07;;;;;;;;;;;24.30;90.60;;;;;;5045331;28;19956;-60
2022/05/15 01:52:35;;;;;;;;;;;24.30;90.70;;;;;;5036115;28;19936;-58
2022/05/15 01:55:03;;;;;;;;;;;24.30;90.70;;;;;;5025836;28;19929;-57
2022/05/15 01:57:30;;;;;;;;;;;24.30;90.70;;;;;;5012155;28;19925;-59
2022/05/15 01:59:59;;;;;;;;;;;24.30;90.60;;;;;;5043963;28;19931;-59
2022/05/15 02:02:30;;;;;;;;;;;24.30;90.50;;;;;;5039365;28;19928;-61
2022/05/15 02:04:57;;;;;;;;;;;24.30;90.40;;;;;;5041088;28;19929;-60
2022/05/15 02:07:25;;;;;;;;;;;24.30;90.30;;;;;;5040663;28;19929;-59
2022/05/15 02:09:54;;;;;;;;;;;24.30;90.20;;;;;;5037538;28;20307;-60
2022/05/15 02:12:21;;;;;;;;;;;24.30;90.20;;;;;;5026470;28;20316;-59
2022/05/15 02:14:49;;;;;;;;;;;24.20;90.20;;;;;;5019212;28;20320;-60
2022/05/15 02:17:16;;;;;;;;;;;24.20;90.10;;;;;;5030151;28;19940;-59
2022/05/15 02:19:43;;;;;;;;;;;24.30;90.10;;;;;;5031890;28;19936;-60
2022/05/15 02:22:14;;;;;;;;;;;24.20;90.20;;;;;;5025531;28;19932;-60
2022/05/15 02:24:42;;;;;;;;;;;24.20;90.30;;;;;;5017788;28;20298;-59
2022/05/15 02:27:10;;;;;;;;;;;24.20;90.20;;;;;;5027196;28;19933;-60
2022/05/15 02:29:37;;;;;;;;;;;24.20;90.20;;;;;;5046443;28;20181;-58
2022/05/15 02:32:04;;;;;;;;;;;24.20;90.30;;;;;;5065632;28;19928;-60
2022/05/15 02:34:33;;;;;;;;;;;24.20;90.30;;;;;;5030455;28;20703;-57
2022/05/15 02:37:01;;;;;;;;;;;24.20;90.40;;;;;;5029873;28;20422;-57
2022/05/15 02:39:29;;;;;;;;;;;24.20;90.40;;;;;;5027843;28;19935;-58
2022/05/15 02:41:56;;;;;;;;;;;24.20;90.50;;;;;;5029784;28;19925;-59
2022/05/15 02:44:23;;;;;;;;;;;24.20;90.50;;;;;;5034709;28;19935;-58
2022/05/15 02:46:52;;;;;;;;;;;24.20;90.50;;;;;;5034863;28;19935;-59
2022/05/15 02:52:06;;;;;;;;;;;24.20;90.90;;;;;;5059431;28;19929;-57
2022/05/15 02:54:33;;;;;;;;;;;24.10;90.80;;;;;;5042130;28;19936;-56
2022/05/15 02:57:02;;;;;;;;;;;24.10;90.90;;;;;;5027946;28;19936;-59
2022/05/15 02:59:29;;;;;;;;;;;24.20;91.00;;;;;;5036729;28;20307;-57
2022/05/15 03:01:56;;;;;;;;;;;24.10;91.00;;;;;;5050181;28;19928;-59
2022/05/15 03:04:23;;;;;;;;;;;24.10;91.40;;;;;;5030562;28;19936;-59
2022/05/15 03:06:50;;;;;;;;;;;24.10;91.60;;;;;;5025942;28;19929;-59
2022/05/15 03:09:17;;;;;;;;;;;24.10;91.60;;;;;;5028766;28;19925;-59
2022/05/15 03:11:45;;;;;;;;;;;24.10;91.50;;;;;;5059602;28;20333;-57
2022/05/15 03:14:12;;;;;;;;;;;24.10;91.40;;;;;;5053088;28;19936;-59
2022/05/15 03:16:39;;;;;;;;;;;24.10;91.30;;;;;;5030682;28;19928;-59
2022/05/15 03:19:07;;;;;;;;;;;24.10;91.30;;;;;;5039672;28;19932;-59
2022/05/15 03:21:34;;;;;;;;;;;24.10;91.10;;;;;;5050484;28;19935;-58
2022/05/15 03:24:11;;;;;;;;;;;24.10;90.90;;;;;;5021657;28;19928;-57
2022/05/15 03:26:39;;;;;;;;;;;24.10;90.80;;;;;;5024858;28;19933;-61
2022/05/15 03:29:07;;;;;;;;;;;24.10;90.70;;;;;;5037881;28;19933;-59
2022/05/15 03:31:38;;;;;;;;;;;24.10;90.70;;;;;;5038720;28;19929;-60
2022/05/15 03:34:08;;;;;;;;;;;24.10;90.70;;;;;;5039792;28;19929;-59
2022/05/15 03:36:36;;;;;;;;;;;24.10;90.80;;;;;;5033238;28;19929;-61
2022/05/15 03:39:06;;;;;;;;;;;24.00;90.80;;;;;;5025428;28;19936;-60
2022/05/15 03:41:34;;;;;;;;;;;24.00;90.70;;;;;;5029751;28;19929;-60
2022/05/15 03:44:01;;;;;;;;;;;24.10;90.90;;;;;;5041993;28;20281;-58
2022/05/15 03:46:28;;;;;;;;;;;24.10;90.40;;;;;;5041913;28;20330;-58
2022/05/15 03:48:56;;;;;;;;;;;24.10;90.10;;;;;;5028436;28;19929;-61
2022/05/15 03:51:23;;;;;;;;;;;24.00;90.00;;;;;;5032525;28;19952;-59
2022/05/15 03:53:50;;;;;;;;;;;24.10;89.80;;;;;;5051265;28;20276;-58
2022/05/15 03:56:49;;;;;;;;;;;24.00;89.70;;;;;;5035525;28;19937;-61
2022/05/15 03:59:05;;;;;;;;;;;24.00;89.60;;;;;;5043427;28;20467;-59
2022/05/15 04:01:33;;;;;;;;;;;23.70;81.90;;;;;;5038825;28;19929;-58
2022/05/15 04:04:00;;;;;;;;;;;23.20;80.60;;;;;;5029312;28;19929;-59
2022/05/15 04:06:28;;;;;;;;;;;22.70;80.40;;;;;;5037580;28;19940;-58
2022/05/15 04:08:55;;;;;;;;;;;22.50;81.20;;;;;;5046376;28;20009;-59
2022/05/15 04:11:22;;;;;;;;;;;22.30;80.70;;;;;;5042074;28;19929;-59
2022/05/15 04:13:49;;;;;;;;;;;22.10;81.10;;;;;;5035997;28;20392;-57
2022/05/15 04:16:16;;;;;;;;;;;21.90;81.30;;;;;;5034951;28;19936;-61
2022/05/15 04:18:44;;;;;;;;;;;21.80;81.90;;;;;;5023370;28;20405;-58
2022/05/15 04:21:11;;;;;;;;;;;21.70;81.80;;;;;;5033181;28;19936;-59
2022/05/15 04:23:38;;;;;;;;;;;21.70;82.20;;;;;;5034968;28;20305;-60
2022/05/15 04:26:05;;;;;;;;;;;21.60;82.10;;;;;;5029960;28;20417;-59
2022/05/15 04:28:33;;;;;;;;;;;21.50;82.00;;;;;;5032225;28;19952;-59
2022/05/15 04:31:04;;;;;;;;;;;21.30;82.60;;;;;;5046225;28;19932;-56
2022/05/15 04:33:31;;;;;;;;;;;21.20;82.70;;;;;;5033420;28;19925;-58
2022/05/15 04:35:59;;;;;;;;;;;21.20;83.10;;;;;;5045351;28;20109;-58
2022/05/15 04:38:26;;;;;;;;;;;21.10;83.10;;;;;;5027913;28;19929;-59
2022/05/15 04:40:53;;;;;;;;;;;21.10;83.20;;;;;;5037687;28;19935;-58
2022/05/15 04:43:20;;;;;;;;;;;21.10;83.30;;;;;;5046337;28;19956;-58
2022/05/15 04:45:47;;;;;;;;;;;21.00;83.20;;;;;;5039485;28;20408;-59
2022/05/15 04:48:15;;;;;;;;;;;21.10;84.00;;;;;;5044954;28;19944;-59
2022/05/15 04:50:42;;;;;;;;;;;21.60;85.90;;;;;;5045367;28;19936;-58
2022/05/15 04:53:09;;;;;;;;;;;22.00;85.50;;;;;;5023435;28;19964;-58
2022/05/15 04:55:36;;;;;;;;;;;22.30;84.80;;;;;;5056882;28;19933;-57
2022/05/15 04:58:03;;;;;;;;;;;22.50;85.60;;;;;;5056835;28;20391;-56
2022/05/15 05:00:31;;;;;;;;;;;22.70;86.00;;;;;;5052719;28;19928;-57
2022/05/15 05:02:58;;;;;;;;;;;22.80;86.70;;;;;;5047300;28;19939;-58
2022/05/15 05:05:25;;;;;;;;;;;22.90;86.20;;;;;;5048922;28;19936;-61
2022/05/15 05:07:52;;;;;;;;;;;22.60;82.00;;;;;;5037633;28;20336;-58
2022/05/15 05:10:19;;;;;;;;;;;22.20;82.00;;;;;;5029965;28;19936;-57
2022/05/15 05:12:47;;;;;;;;;;;21.90;82.20;;;;;;5046432;28;19925;-57
2022/05/15 05:15:14;;;;;;;;;;;21.60;82.60;;;;;;5050050;28;19995;-58
2022/05/15 05:17:41;;;;;;;;;;;21.70;83.60;;;;;;5042476;28;19925;-58
2022/05/15 05:20:10;;;;;;;;;;;22.10;84.90;;;;;;5057690;28;19934;-57
2022/05/15 05:22:37;;;;;;;;;;;22.40;84.40;;;;;;5045961;28;20320;-59
2022/05/15 05:25:05;;;;;;;;;;;22.70;84.40;;;;;;5045313;28;20327;-57
2022/05/15 05:27:33;;;;;;;;;;;22.80;84.10;;;;;;5050261;28;19940;-58
2022/05/15 05:30:00;;;;;;;;;;;22.90;85.40;;;;;;5052841;28;19928;-58
2022/05/15 05:32:27;;;;;;;;;;;22.90;86.90;;;;;;5048993;28;19967;-58
2022/05/15 05:34:54;;;;;;;;;;;23.00;87.50;;;;;;5042437;28;20408;-55
2022/05/15 05:37:21;;;;;;;;;;;23.10;86.00;;;;;;5038484;28;19936;-57
2022/05/15 05:39:49;;;;;;;;;;;23.10;87.10;;;;;;5049417;28;19929;-58
2022/05/15 05:42:16;;;;;;;;;;;23.20;87.60;;;;;;5068212;28;19928;-58
2022/05/15 05:44:43;;;;;;;;;;;23.20;87.30;;;;;;5041575;28;19929;-61
2022/05/15 05:47:11;;;;;;;;;;;23.20;87.30;;;;;;5049181;28;19931;-61
2022/05/15 05:49:38;;;;;;;;;;;23.20;87.30;;;;;;5044218;28;19940;-60
2022/05/15 05:52:06;;;;;;;;;;;23.30;87.40;;;;;;5050318;28;19935;-59
2022/05/15 05:54:33;;;;;;;;;;;23.20;87.20;;;;;;5042064;28;19928;-56
2022/05/15 05:57:00;;;;;;;;;;;23.20;86.90;;;;;;5030669;28;19929;-58
2022/05/15 05:59:28;;;;;;;;;;;23.20;87.00;;;;;;5058893;28;19933;-59
2022/05/15 06:01:55;;;;;;;;;;;23.30;87.10;;;;;;5036967;28;19935;-58
2022/05/15 06:04:41;;;;;;;;;;;23.30;87.00;;;;;;5035462;28;19936;-56
2022/05/15 06:07:10;;;;;;;;;;;23.30;87.00;;;;;;5041847;28;19952;-59
2022/05/15 06:09:39;;;;;;;;;;;23.30;87.00;;;;;;5043649;28;20416;-59
2022/05/15 06:12:09;;;;;;;;;;;23.30;86.90;;;;;;5050469;28;19932;-58
2022/05/15 06:14:37;;;;;;;;;;;23.40;86.90;;;;;;5042125;28;19928;-59
2022/05/15 06:17:04;;;;;;;;;;;23.40;86.80;;;;;;5045335;28;19928;-58
2022/05/15 06:19:32;;;;;;;;;;;23.40;86.90;;;;;;5041379;28;20438;-56
2022/05/15 06:22:00;;;;;;;;;;;23.50;86.90;;;;;;5045215;28;19925;-54
2022/05/15 06:24:27;;;;;;;;;;;23.50;86.80;;;;;;5055215;28;19933;-57
2022/05/15 06:26:54;;;;;;;;;;;23.50;86.70;;;;;;5040969;28;19936;-57
2022/05/15 06:29:22;;;;;;;;;;;23.60;86.60;;;;;;5038478;28;20392;-58
2022/05/15 06:31:49;;;;;;;;;;;23.50;86.40;;;;;;5046667;28;19932;-59
2022/05/15 06:34:16;;;;;;;;;;;23.50;86.20;;;;;;5032466;28;20008;-57
2022/05/15 06:36:43;;;;;;;;;;;23.50;86.30;;;;;;5024008;28;19929;-57
2022/05/15 06:39:10;;;;;;;;;;;23.50;86.30;;;;;;5044797;28;19928;-59
2022/05/15 06:41:38;;;;;;;;;;;23.50;86.00;;;;;;5039228;28;19936;-59
2022/05/15 06:44:05;;;;;;;;;;;23.40;86.10;;;;;;5038288;28;19925;-58
2022/05/15 06:46:32;;;;;;;;;;;23.40;85.80;;;;;;5046129;28;19925;-60
2022/05/15 06:49:00;;;;;;;;;;;23.30;85.50;;;;;;5024100;28;19928;-59
2022/05/15 06:51:27;;;;;;;;;;;23.30;84.60;;;;;;5039956;28;20398;-58
2022/05/15 06:53:54;;;;;;;;;;;23.40;84.30;;;;;;5038457;28;19928;-60
2022/05/15 06:59:07;;;;;;;;;;;23.40;84.30;;;;;;5029120;28;20260;-58
2022/05/15 07:01:34;;;;;;;;;;;23.30;84.30;;;;;;5037032;28;19944;-60
2022/05/15 07:04:01;;;;;;;;;;;23.30;84.30;;;;;;5038786;28;20410;-59
2022/05/15 07:06:28;;;;;;;;;;;23.30;83.90;;;;;;5040966;28;19929;-55
2022/05/15 07:08:55;;;;;;;;;;;23.40;83.70;;;;;;5040282;28;20407;-58
2022/05/15 07:11:22;;;;;;;;;;;23.40;83.60;;;;;;5050124;28;19928;-54
2022/05/15 07:13:50;;;;;;;;;;;23.40;83.80;;;;;;5041778;28;20335;-59
2022/05/15 07:16:17;;;;;;;;;;;23.40;83.80;;;;;;5046513;28;19932;-61
2022/05/15 07:18:44;;;;;;;;;;;23.40;83.60;;;;;;5050551;28;19936;-59
2022/05/15 07:21:11;;;;;;;;;;;23.40;85.70;;;;;;5040315;28;19948;-59
2022/05/15 07:23:38;;;;;;;;;;;23.50;85.90;;;;;;5052779;28;20035;-57
2022/05/15 07:26:06;;;;;;;;;;;23.50;85.00;;;;;;5039935;28;19984;-58
2022/05/15 07:28:33;;;;;;;;;;;23.50;84.70;;;;;;5043684;28;19933;-60
2022/05/15 07:31:00;;;;;;;;;;;23.50;84.30;;;;;;5038115;28;19948;-58
2022/05/15 07:33:28;;;;;;;;;;;23.50;84.10;;;;;;5039913;28;20275;-58
2022/05/15 07:35:55;;;;;;;;;;;23.50;84.00;;;;;;5051743;28;20423;-59
2022/05/15 07:38:23;;;;;;;;;;;23.50;86.50;;;;;;5035795;28;19929;-60
2022/05/15 07:40:50;;;;;;;;;;;23.50;86.60;;;;;;5037871;28;20357;-60
2022/05/15 07:43:17;;;;;;;;;;;23.40;87.00;;;;;;5032188;28;19925;-60
2022/05/15 07:45:44;;;;;;;;;;;23.40;86.10;;;;;;5039022;28;19932;-57
2022/05/15 07:48:12;;;;;;;;;;;23.40;85.60;;;;;;5033816;28;20564;-59
2022/05/15 07:50:39;;;;;;;;;;;23.40;87.00;;;;;;5027488;28;19956;-58
2022/05/15 07:53:07;;;;;;;;;;;23.50;86.90;;;;;;5040622;28;19929;-60
2022/05/15 07:55:34;;;;;;;;;;;23.50;86.70;;;;;;5020318;28;19935;-58
2022/05/15 07:58:01;;;;;;;;;;;23.50;87.90;;;;;;5041754;28;19928;-59
2022/05/15 08:00:28;;;;;;;;;;;23.50;89.80;;;;;;5047909;28;19948;-59
2022/05/15 08:03:02;;;;;;;;;;;23.50;89.70;;;;;;5035477;28;19940;-60
2022/05/15 08:08:15;;;;;;;;;;;23.50;88.20;;;;;;5027856;28;19928;-58
2022/05/15 08:10:44;;;;;;;;;;;23.60;88.80;;;;;;5028880;28;19929;-58
2022/05/15 08:13:16;;;;;;;;;;;23.60;89.50;;;;;;5048494;28;19924;-58
2022/05/15 08:15:43;;;;;;;;;;;23.60;90.20;;;;;;5054199;28;19928;-59
2022/05/15 08:23:45;;;;;;;;;;;23.60;91.00;;;;;;5049746;28;19936;-58
2022/05/15 08:26:13;;;;;;;;;;;23.70;95.80;;;;;;5047745;28;19929;-61
2022/05/15 08:28:40;;;;;;;;;;;23.70;95.90;;;;;;5060639;28;20393;-60
2022/05/15 08:31:08;;;;;;;;;;;23.70;95.60;;;;;;5061972;28;19928;-60
2022/05/15 08:33:37;;;;;;;;;;;23.80;95.70;;;;;;5047883;28;19929;-60
2022/05/15 08:36:05;;;;;;;;;;;23.80;98.70;;;;;;5047953;28;20388;-59
2022/05/15 08:38:33;;;;;;;;;;;23.80;98.70;;;;;;5054107;28;19935;-60
2022/05/15 08:41:15;;;;;;;;;;;23.80;98.80;;;;;;5046688;28;19940;-58
2022/05/15 08:43:42;;;;;;;;;;;23.80;99.30;;;;;;5053596;28;19936;-56
2022/05/15 08:46:30;;;;;;;;;;;23.80;97.70;;;;;;5041061;28;19933;-57
2022/05/15 08:49:09;;;;;;;;;;;23.80;97.30;;;;;;5039834;28;20415;-59
2022/05/15 08:51:36;;;;;;;;;;;23.70;97.10;;;;;;5043639;28;20031;-58
2022/05/15 08:54:06;;;;;;;;;;;23.70;96.70;;;;;;5040749;28;20412;-60
2022/05/15 08:56:36;;;;;;;;;;;23.70;96.20;;;;;;5034461;28;19929;-59
2022/05/15 08:59:06;;;;;;;;;;;23.80;96.10;;;;;;5045551;28;19929;-59
2022/05/15 09:01:33;;;;;;;;;;;23.80;95.70;;;;;;5044391;28;20418;-56
2022/05/15 09:04:01;;;;;;;;;;;23.70;95.50;;;;;;5043901;28;19933;-55
2022/05/15 09:06:42;;;;;;;;;;;23.80;95.40;;;;;;5042455;28;20396;-60
2022/05/15 09:09:24;;;;;;;;;;;23.80;95.20;;;;;;5031913;28;19933;-60
2022/05/15 09:11:51;;;;;;;;;;;23.80;94.90;;;;;;5035218;28;20328;-60
2022/05/15 09:14:38;;;;;;;;;;;23.80;94.70;;;;;;5028951;28;19929;-58
2022/05/15 09:17:17;;;;;;;;;;;23.80;94.60;;;;;;5049900;28;19925;-58
2022/05/15 09:19:47;;;;;;;;;;;23.80;94.40;;;;;;5030836;28;19936;-58
2022/05/15 09:22:14;;;;;;;;;;;23.80;94.20;;;;;;5030731;28;19932;-60
2022/05/15 09:24:47;;;;;;;;;;;23.80;94.10;;;;;;5030503;28;20332;-58
2022/05/15 09:27:17;;;;;;;;;;;23.80;93.90;;;;;;5015767;28;19928;-57
2022/05/15 09:29:50;;;;;;;;;;;23.90;93.80;;;;;;5031145;28;19932;-60
2022/05/15 09:32:33;;;;;;;;;;;23.80;93.80;;;;;;5030614;28;19936;-59
2022/05/15 09:35:01;;;;;;;;;;;23.80;93.60;;;;;;5024117;28;20404;-59
2022/05/15 09:40:22;;;;;;;;;;;23.80;93.40;;;;;;5034367;28;19929;-59
2022/05/15 09:45:46;;;;;;;;;;;23.90;93.40;;;;;;5041266;28;19935;-59
2022/05/15 09:48:14;;;;;;;;;;;23.90;93.40;;;;;;5039950;28;19927;-61
2022/05/15 09:50:47;;;;;;;;;;;23.90;93.30;;;;;;5030786;28;20001;-59
2022/05/15 09:53:19;;;;;;;;;;;23.90;93.30;;;;;;5042471;28;19947;-59
2022/05/15 09:56:03;;;;;;;;;;;23.90;93.30;;;;;;5035666;28;19943;-59
2022/05/15 09:58:36;;;;;;;;;;;23.90;93.30;;;;;;5042453;28;19933;-58
2022/05/15 10:01:15;;;;;;;;;;;23.90;93.20;;;;;;5032262;28;19929;-59
2022/05/15 10:03:47;;;;;;;;;;;23.90;93.20;;;;;;5042079;28;20447;-60
2022/05/15 10:06:19;;;;;;;;;;;23.90;93.20;;;;;;5029635;28;19936;-57
2022/05/15 10:08:46;;;;;;;;;;;23.90;93.20;;;;;;5029298;28;19929;-59
2022/05/15 10:11:17;;;;;;;;;;;23.90;93.20;;;;;;5029026;28;19929;-59
2022/05/15 10:13:52;;;;;;;;;;;23.90;93.20;;;;;;5029739;28;20316;-59
2022/05/15 10:16:21;;;;;;;;;;;23.90;93.10;;;;;;5036844;28;20323;-62
2022/05/15 10:18:58;;;;;;;;;;;23.90;93.10;;;;;;5033008;28;19929;-64
2022/05/15 10:21:32;;;;;;;;;;;23.90;93.10;;;;;;5029623;28;19952;-60
2022/05/15 10:24:04;;;;;;;;;;;23.90;93.10;;;;;;5029209;28;20308;-59
2022/05/15 10:26:51;;;;;;;;;;;23.90;93.10;;;;;;5030352;28;19940;-58
2022/05/15 10:29:36;;;;;;;;;;;23.90;93.10;;;;;;5007396;28;19929;-60
2022/05/15 10:32:08;;;;;;;;;;;23.90;93.10;;;;;;5031071;28;20320;-58
2022/05/15 10:34:36;;;;;;;;;;;23.90;93.10;;;;;;5045813;28;19929;-61
2022/05/15 10:37:11;;;;;;;;;;;23.90;93.00;;;;;;5016982;28;19936;-59
2022/05/15 10:40:03;;;;;;;;;;;23.90;93.00;;;;;;5034888;28;20201;-59
2022/05/15 10:42:30;;;;;;;;;;;23.90;93.00;;;;;;5046858;28;19928;-59
2022/05/15 10:45:16;;;;;;;;;;;23.90;93.00;;;;;;5037723;28;19929;-60
2022/05/15 10:47:52;;;;;;;;;;;23.90;93.00;;;;;;5045096;28;19929;-59
2022/05/15 10:50:25;;;;;;;;;;;23.90;93.00;;;;;;5028892;28;19929;-58
2022/05/15 10:52:57;;;;;;;;;;;23.90;93.00;;;;;;5027159;28;19952;-60
2022/05/15 10:58:33;;;;;;;;;;;23.90;92.90;;;;;;5038035;28;19943;-54
2022/05/15 11:01:05;;;;;;;;;;;23.90;93.00;;;;;;5030534;28;19936;-60
2022/05/15 11:03:32;;;;;;;;;;;23.90;92.90;;;;;;5029387;28;20316;-59
2022/05/15 11:06:03;;;;;;;;;;;23.90;92.90;;;;;;5043660;28;19925;-62
2022/05/15 11:08:36;;;;;;;;;;;23.90;92.90;;;;;;5028139;28;19940;-59
2022/05/15 11:11:13;;;;;;;;;;;24.00;92.90;;;;;;5028463;28;19929;-60
2022/05/15 11:13:52;;;;;;;;;;;23.90;92.80;;;;;;5048898;28;19992;-61
2022/05/15 11:16:26;;;;;;;;;;;24.00;92.80;;;;;;5026084;28;19929;-54
2022/05/15 11:19:16;;;;;;;;;;;24.00;92.80;;;;;;5025784;28;19944;-59
2022/05/15 11:21:43;;;;;;;;;;;24.00;92.80;;;;;;5027004;28;20392;-60
2022/05/15 11:24:25;;;;;;;;;;;24.00;92.70;;;;;;5029671;28;19929;-60
2022/05/15 11:26:54;;;;;;;;;;;24.00;92.70;;;;;;5027655;28;20311;-60
2022/05/15 11:29:22;;;;;;;;;;;24.00;92.70;;;;;;5036634;28;20301;-59
2022/05/15 11:31:50;;;;;;;;;;;24.00;92.70;;;;;;5029285;28;19929;-59
2022/05/15 11:34:18;;;;;;;;;;;24.00;92.70;;;;;;5030095;28;19956;-59
2022/05/15 11:36:47;;;;;;;;;;;24.00;92.60;;;;;;5042766;28;20324;-59
2022/05/15 11:39:14;;;;;;;;;;;24.00;92.60;;;;;;5035488;28;19925;-59
2022/05/15 11:41:44;;;;;;;;;;;24.00;92.60;;;;;;5026944;28;20316;-58
2022/05/15 11:44:12;;;;;;;;;;;24.00;92.60;;;;;;5029168;28;19949;-55
2022/05/15 11:46:45;;;;;;;;;;;24.00;92.60;;;;;;5041127;28;19936;-60
2022/05/15 11:49:16;;;;;;;;;;;24.00;92.60;;;;;;5036409;28;19929;-59
2022/05/15 11:51:56;;;;;;;;;;;24.00;92.60;;;;;;5048544;28;19940;-58
2022/05/15 11:54:28;;;;;;;;;;;24.00;92.50;;;;;;5032336;28;19928;-57
2022/05/15 11:56:59;;;;;;;;;;;24.00;92.50;;;;;;5032830;28;19929;-58
2022/05/15 11:59:28;;;;;;;;;;;24.00;92.50;;;;;;5052152;28;19925;-58
2022/05/15 12:02:00;;;;;;;;;;;24.00;92.50;;;;;;5032878;28;19939;-56
2022/05/15 12:04:33;;;;;;;;;;;24.00;92.70;;;;;;5037492;28;19929;-58
2022/05/15 12:07:01;;;;;;;;;;;24.00;92.50;;;;;;5041469;28;19928;-59
2022/05/15 12:09:28;;;;;;;;;;;24.10;92.80;;;;;;5044058;28;19932;-57
2022/05/15 12:11:57;;;;;;;;;;;24.10;92.80;;;;;;5039526;28;19929;-58
2022/05/15 12:14:29;;;;;;;;;;;24.10;92.90;;;;;;5039895;28;19936;-57
2022/05/15 12:16:56;;;;;;;;;;;24.20;94.00;;;;;;5037644;28;19929;-57
2022/05/15 12:19:32;;;;;;;;;;;24.20;94.70;;;;;;5044310;28;19936;-55
2022/05/15 12:22:02;;;;;;;;;;;24.20;94.60;;;;;;5043139;28;19928;-57
2022/05/15 12:24:32;;;;;;;;;;;24.20;94.50;;;;;;5044381;28;19931;-58
2022/05/15 12:27:06;;;;;;;;;;;24.20;94.20;;;;;;5044665;28;20148;-56
2022/05/15 12:29:45;;;;;;;;;;;24.20;93.80;;;;;;5048690;28;20391;-58
2022/05/15 12:32:19;;;;;;;;;;;24.20;93.40;;;;;;5050958;28;20093;-61
2022/05/15 12:34:48;;;;;;;;;;;24.10;93.30;;;;;;5049298;28;19928;-59
2022/05/15 12:37:18;;;;;;;;;;;24.20;93.50;;;;;;5045375;28;20410;-59
2022/05/15 12:39:47;;;;;;;;;;;24.20;93.70;;;;;;5047330;28;19932;-61
2022/05/15 12:42:16;;;;;;;;;;;24.20;93.60;;;;;;5047184;28;19929;-60
2022/05/15 12:44:43;;;;;;;;;;;24.20;93.70;;;;;;5040465;28;19929;-60
2022/05/15 12:47:20;;;;;;;;;;;24.30;93.70;;;;;;5040649;28;19929;-57
2022/05/15 12:49:47;;;;;;;;;;;24.30;93.70;;;;;;5052895;28;20319;-59
2022/05/15 12:52:19;;;;;;;;;;;24.30;93.80;;;;;;5043880;28;20529;-59
2022/05/15 12:54:53;;;;;;;;;;;24.30;93.80;;;;;;5062140;28;19936;-58
2022/05/15 12:57:20;;;;;;;;;;;24.40;93.70;;;;;;5054285;28;19940;-60
2022/05/15 12:59:49;;;;;;;;;;;24.40;93.80;;;;;;5057736;28;20622;-60
2022/05/15 13:02:16;;;;;;;;;;;24.50;93.90;;;;;;5060698;28;19929;-60
2022/05/15 13:04:45;;;;;;;;;;;24.50;93.90;;;;;;5044098;28;19936;-61
2022/05/15 13:07:12;;;;;;;;;;;24.50;93.90;;;;;;5039500;28;19929;-60
2022/05/15 13:09:40;;;;;;;;;;;24.60;93.90;;;;;;5038504;28;19931;-59
2022/05/15 13:12:10;;;;;;;;;;;24.60;94.00;;;;;;5050765;28;19940;-59
2022/05/15 13:14:39;;;;;;;;;;;24.50;94.00;;;;;;5039908;28;19929;-60
2022/05/15 13:17:09;;;;;;;;;;;24.60;94.00;;;;;;5050691;28;19936;-57
2022/05/15 13:19:40;;;;;;;;;;;24.60;94.00;;;;;;5046974;28;19939;-58
2022/05/15 13:22:12;;;;;;;;;;;24.60;93.90;;;;;;5040983;28;19928;-54
2022/05/15 13:24:39;;;;;;;;;;;24.60;93.70;;;;;;5036987;28;19928;-56
2022/05/15 13:27:07;;;;;;;;;;;24.70;93.60;;;;;;5036705;28;19929;-54
2022/05/15 13:29:35;;;;;;;;;;;24.70;93.50;;;;;;5037690;28;19936;-60
2022/05/15 13:32:04;;;;;;;;;;;24.80;93.70;;;;;;5050301;28;19931;-59
2022/05/15 13:34:31;;;;;;;;;;;24.80;93.70;;;;;;5048721;28;19947;-60
2022/05/15 13:37:00;;;;;;;;;;;24.80;93.80;;;;;;5038443;28;19929;-56
2022/05/15 13:45:13;;;;;;;;;;;24.90;94.30;;;;;;5050098;28;19944;-58
2022/05/15 13:48:03;;;;;;;;;;;24.90;94.50;;;;;;5035189;28;19936;-59
2022/05/15 13:50:44;;;;;;;;;;;25.00;94.60;;;;;;5052020;28;19932;-58
2022/05/15 13:53:20;;;;;;;;;;;25.00;94.60;;;;;;5037768;28;19932;-58
2022/05/15 13:55:51;;;;;;;;;;;25.10;94.60;;;;;;5047519;28;19925;-58
2022/05/15 13:58:19;;;;;;;;;;;25.10;94.80;;;;;;5047322;28;19934;-58
2022/05/15 14:01:06;;;;;;;;;;;25.10;95.00;;;;;;5046914;28;19928;-58
2022/05/15 14:03:35;;;;;;;;;;;25.10;94.60;;;;;;5045446;28;19933;-56
2022/05/15 14:06:13;;;;;;;;;;;25.20;94.20;;;;;;5050945;28;19925;-57
2022/05/15 14:08:59;;;;;;;;;;;25.20;93.40;;;;;;5035294;28;20354;-57
2022/05/15 14:11:27;;;;;;;;;;;25.10;92.20;;;;;;5056497;28;20297;-57
2022/05/15 14:13:55;;;;;;;;;;;25.10;90.70;;;;;;5053476;28;19928;-57
2022/05/15 14:16:24;;;;;;;;;;;25.10;88.90;;;;;;5038706;28;19940;-54
2022/05/15 14:18:52;;;;;;;;;;;25.00;87.80;;;;;;5042874;28;19932;-55
2022/05/15 14:21:26;;;;;;;;;;;25.00;87.00;;;;;;5042978;28;19940;-58
2022/05/15 14:23:54;;;;;;;;;;;25.00;86.00;;;;;;5038596;28;19929;-57
2022/05/15 14:26:26;;;;;;;;;;;25.00;84.90;;;;;;5048101;28;20003;-55
2022/05/15 14:28:53;;;;;;;;;;;25.00;84.20;;;;;;5044554;28;19933;-58
2022/05/15 14:31:24;;;;;;;;;;;25.00;83.50;;;;;;5048865;28;20020;-57
2022/05/15 14:33:57;;;;;;;;;;;25.10;83.00;;;;;;5045899;28;19929;-56
2022/05/15 14:36:24;;;;;;;;;;;25.10;82.20;;;;;;5059623;28;20438;-56
2022/05/15 14:38:51;;;;;;;;;;;25.10;81.50;;;;;;5053001;28;20423;-57
2022/05/15 14:41:18;;;;;;;;;;;25.20;81.10;;;;;;5055346;28;19929;-57
2022/05/15 14:43:46;;;;;;;;;;;25.10;81.10;;;;;;5044365;28;20626;-55
2022/05/15 14:46:14;;;;;;;;;;;25.20;81.10;;;;;;5045599;28;20475;-56
2022/05/15 14:48:43;;;;;;;;;;;25.20;80.70;;;;;;5045980;28;19928;-60
2022/05/15 14:51:13;;;;;;;;;;;25.20;80.40;;;;;;5045067;28;19933;-56
2022/05/15 14:53:40;;;;;;;;;;;25.20;79.80;;;;;;5046683;28;19960;-57
2022/05/15 14:56:08;;;;;;;;;;;25.30;79.60;;;;;;5032525;28;19937;-59
2022/05/15 14:58:42;;;;;;;;;;;25.30;79.30;;;;;;5048520;28;20424;-59